sensor_id;sensor_type;location;lat;lon;timestamp;P1;durP1;ratioP1;P2;durP2;ratioP2
64351;SDS011;50680;52.626;-8.668;2022-09-12T00:00:13;2.47;;;0.30;;
64351;SDS011;50680;52.626;-8.668;2022-09-12T00:02:41;2.75;;;0.35;;
64351;SDS011;50680;52.626;-8.668;2022-09-12T00:05:08;0.80;;;0.40;;
64351;SDS011;50680;52.626;-8.668;2022-09-12T00:07:35;0.88;;;0.32;;
64351;SDS011;50680;52.626;-8.668;2022-09-12T00:10:02;0.50;;;0.40;;
64351;SDS011;50680;52.626;-8.668;2022-09-12T00:12:29;1.30;;;0.50;;
64351;SDS011;50680;52.626;-8.668;2022-09-12T00:14:56;0.50;;;0.30;;
64351;SDS011;50680;52.626;-8.668;2022-09-12T00:17:23;5.00;;;0.65;;
64351;SDS011;50680;52.626;-8.668;2022-09-12T00:19:50;2.05;;;0.30;;
64351;SDS011;50680;52.626;-8.668;2022-09-12T00:22:17;1.98;;;0.40;;
64351;SDS011;50680;52.626;-8.668;2022-09-12T00:24:44;1.67;;;0.95;;
64351;SDS011;50680;52.626;-8.668;2022-09-12T00:27:11;1.15;;;0.30;;
64351;SDS011;50680;52.626;-8.668;2022-09-12T00:29:38;0.50;;;0.40;;
64351;SDS011;50680;52.626;-8.668;2022-09-12T00:32:05;1.95;;;0.50;;
64351;SDS011;50680;52.626;-8.668;2022-09-12T00:34:32;1.45;;;0.30;;
64351;SDS011;50680;52.626;-8.668;2022-09-12T00:36:59;3.63;;;0.50;;
64351;SDS011;50680;52.626;-8.668;2022-09-12T00:39:26;1.05;;;0.30;;
64351;SDS011;50680;52.626;-8.668;2022-09-12T00:41:53;3.20;;;0.40;;
64351;SDS011;50680;52.626;-8.668;2022-09-12T00:55:03;1.63;;;0.38;;
64351;SDS011;50680;52.626;-8.668;2022-09-12T00:57:38;2.15;;;0.30;;
64351;SDS011;50680;52.626;-8.668;2022-09-12T01:00:12;2.28;;;0.20;;
64351;SDS011;50680;52.626;-8.668;2022-09-12T01:05:09;0.40;;;0.40;;
64351;SDS011;50680;52.626;-8.668;2022-09-12T01:07:38;2.42;;;0.43;;
64351;SDS011;50680;52.626;-8.668;2022-09-12T01:10:06;0.60;;;0.30;;
64351;SDS011;50680;52.626;-8.668;2022-09-12T01:12:36;4.03;;;0.40;;
64351;SDS011;50680;52.626;-8.668;2022-09-12T01:15:05;2.78;;;0.43;;
64351;SDS011;50680;52.626;-8.668;2022-09-12T01:44:54;3.50;;;1.48;;
64351;SDS011;50680;52.626;-8.668;2022-09-12T01:48:03;0.60;;;0.40;;
64351;SDS011;50680;52.626;-8.668;2022-09-12T01:51:25;0.55;;;0.40;;
64351;SDS011;50680;52.626;-8.668;2022-09-12T01:53:47;2.40;;;0.60;;
64351;SDS011;50680;52.626;-8.668;2022-09-12T01:56:23;1.40;;;0.50;;
64351;SDS011;50680;52.626;-8.668;2022-09-12T02:01:47;1.25;;;0.70;;
64351;SDS011;50680;52.626;-8.668;2022-09-12T02:04:22;1.17;;;0.60;;
64351;SDS011;50680;52.626;-8.668;2022-09-12T02:07:05;0.75;;;0.60;;
64351;SDS011;50680;52.626;-8.668;2022-09-12T02:09:41;2.58;;;0.50;;
64351;SDS011;50680;52.626;-8.668;2022-09-12T02:12:21;0.68;;;0.50;;
64351;SDS011;50680;52.626;-8.668;2022-09-12T02:14:56;5.57;;;0.50;;
64351;SDS011;50680;52.626;-8.668;2022-09-12T02:17:27;4.22;;;0.73;;
64351;SDS011;50680;52.626;-8.668;2022-09-12T02:19:58;1.60;;;0.50;;
64351;SDS011;50680;52.626;-8.668;2022-09-12T02:23:10;1.80;;;0.40;;
64351;SDS011;50680;52.626;-8.668;2022-09-12T02:25:41;0.50;;;0.40;;
64351;SDS011;50680;52.626;-8.668;2022-09-12T02:28:21;2.95;;;0.60;;
64351;SDS011;50680;52.626;-8.668;2022-09-12T02:31:11;2.40;;;0.60;;
64351;SDS011;50680;52.626;-8.668;2022-09-12T02:38:52;1.65;;;0.50;;
64351;SDS011;50680;52.626;-8.668;2022-09-12T02:41:20;4.68;;;0.50;;
64351;SDS011;50680;52.626;-8.668;2022-09-12T02:43:48;1.70;;;0.50;;
64351;SDS011;50680;52.626;-8.668;2022-09-12T02:46:18;2.97;;;0.80;;
64351;SDS011;50680;52.626;-8.668;2022-09-12T02:48:51;2.92;;;0.50;;
64351;SDS011;50680;52.626;-8.668;2022-09-12T02:51:20;1.30;;;0.60;;
64351;SDS011;50680;52.626;-8.668;2022-09-12T02:53:49;1.77;;;0.50;;
64351;SDS011;50680;52.626;-8.668;2022-09-12T02:56:24;1.55;;;0.60;;
64351;SDS011;50680;52.626;-8.668;2022-09-12T02:58:54;2.25;;;0.73;;
64351;SDS011;50680;52.626;-8.668;2022-09-12T03:10:06;1.42;;;0.70;;
64351;SDS011;50680;52.626;-8.668;2022-09-12T03:18:19;0.82;;;0.63;;
64351;SDS011;50680;52.626;-8.668;2022-09-12T03:23:25;2.03;;;0.75;;
64351;SDS011;50680;52.626;-8.668;2022-09-12T03:26:05;0.80;;;0.65;;
64351;SDS011;50680;52.626;-8.668;2022-09-12T03:28:38;3.30;;;0.60;;
64351;SDS011;50680;52.626;-8.668;2022-09-12T03:31:14;5.47;;;0.77;;
64351;SDS011;50680;52.626;-8.668;2022-09-12T03:33:42;1.38;;;0.80;;
64351;SDS011;50680;52.626;-8.668;2022-09-12T03:36:18;1.00;;;0.70;;
64351;SDS011;50680;52.626;-8.668;2022-09-12T03:38:48;0.60;;;0.55;;
64351;SDS011;50680;52.626;-8.668;2022-09-12T03:41:15;5.57;;;0.77;;
64351;SDS011;50680;52.626;-8.668;2022-09-12T03:43:43;1.88;;;0.65;;
64351;SDS011;50680;52.626;-8.668;2022-09-12T03:46:10;0.70;;;0.60;;
64351;SDS011;50680;52.626;-8.668;2022-09-12T03:48:39;7.75;;;1.15;;
64351;SDS011;50680;52.626;-8.668;2022-09-12T03:51:07;6.50;;;0.60;;
64351;SDS011;50680;52.626;-8.668;2022-09-12T03:53:35;0.80;;;0.60;;
64351;SDS011;50680;52.626;-8.668;2022-09-12T03:56:09;0.75;;;0.70;;
64351;SDS011;50680;52.626;-8.668;2022-09-12T03:58:37;1.60;;;0.80;;
64351;SDS011;50680;52.626;-8.668;2022-09-12T04:01:08;2.20;;;0.80;;
64351;SDS011;50680;52.626;-8.668;2022-09-12T04:03:39;2.78;;;0.80;;
64351;SDS011;50680;52.626;-8.668;2022-09-12T04:06:08;1.58;;;0.95;;
64351;SDS011;50680;52.626;-8.668;2022-09-12T04:08:36;3.58;;;1.10;;
64351;SDS011;50680;52.626;-8.668;2022-09-12T04:11:04;8.40;;;0.80;;
64351;SDS011;50680;52.626;-8.668;2022-09-12T04:13:33;5.07;;;1.10;;
64351;SDS011;50680;52.626;-8.668;2022-09-12T04:16:02;3.40;;;0.80;;
64351;SDS011;50680;52.626;-8.668;2022-09-12T04:18:30;3.70;;;0.90;;
64351;SDS011;50680;52.626;-8.668;2022-09-12T04:20:57;2.17;;;0.90;;
64351;SDS011;50680;52.626;-8.668;2022-09-12T04:23:28;9.63;;;1.00;;
64351;SDS011;50680;52.626;-8.668;2022-09-12T04:25:56;3.13;;;0.88;;
64351;SDS011;50680;52.626;-8.668;2022-09-12T04:28:25;5.75;;;0.90;;
64351;SDS011;50680;52.626;-8.668;2022-09-12T04:30:54;1.48;;;1.00;;
64351;SDS011;50680;52.626;-8.668;2022-09-12T04:33:22;1.45;;;0.85;;
64351;SDS011;50680;52.626;-8.668;2022-09-12T04:35:49;4.90;;;0.90;;
64351;SDS011;50680;52.626;-8.668;2022-09-12T04:38:15;0.80;;;0.70;;
64351;SDS011;50680;52.626;-8.668;2022-09-12T04:40:43;0.60;;;0.50;;
64351;SDS011;50680;52.626;-8.668;2022-09-12T04:43:10;7.63;;;1.20;;
64351;SDS011;50680;52.626;-8.668;2022-09-12T04:45:39;2.85;;;1.00;;
64351;SDS011;50680;52.626;-8.668;2022-09-12T04:48:07;1.40;;;0.90;;
64351;SDS011;50680;52.626;-8.668;2022-09-12T04:50:34;2.70;;;0.90;;
64351;SDS011;50680;52.626;-8.668;2022-09-12T04:53:00;2.15;;;1.00;;
64351;SDS011;50680;52.626;-8.668;2022-09-12T04:55:27;6.47;;;0.90;;
64351;SDS011;50680;52.626;-8.668;2022-09-12T04:57:55;1.55;;;0.80;;
64351;SDS011;50680;52.626;-8.668;2022-09-12T05:00:22;2.28;;;0.95;;
64351;SDS011;50680;52.626;-8.668;2022-09-12T05:02:49;0.90;;;0.80;;
64351;SDS011;50680;52.626;-8.668;2022-09-12T05:05:16;2.03;;;0.80;;
64351;SDS011;50680;52.626;-8.668;2022-09-12T05:07:43;2.90;;;0.90;;
64351;SDS011;50680;52.626;-8.668;2022-09-12T05:10:10;2.88;;;0.77;;
64351;SDS011;50680;52.626;-8.668;2022-09-12T05:12:38;1.15;;;0.85;;
64351;SDS011;50680;52.626;-8.668;2022-09-12T05:15:05;1.00;;;0.80;;
64351;SDS011;50680;52.626;-8.668;2022-09-12T05:17:33;2.03;;;0.70;;
64351;SDS011;50680;52.626;-8.668;2022-09-12T05:20:00;1.05;;;0.70;;
64351;SDS011;50680;52.626;-8.668;2022-09-12T05:22:27;1.25;;;0.80;;
64351;SDS011;50680;52.626;-8.668;2022-09-12T05:24:54;2.13;;;0.85;;
64351;SDS011;50680;52.626;-8.668;2022-09-12T05:27:21;1.10;;;0.73;;
64351;SDS011;50680;52.626;-8.668;2022-09-12T05:29:48;0.70;;;0.70;;
64351;SDS011;50680;52.626;-8.668;2022-09-12T05:32:15;2.28;;;0.77;;
64351;SDS011;50680;52.626;-8.668;2022-09-12T05:34:43;11.85;;;0.90;;
64351;SDS011;50680;52.626;-8.668;2022-09-12T05:37:10;2.63;;;0.80;;
64351;SDS011;50680;52.626;-8.668;2022-09-12T05:39:37;3.67;;;0.80;;
64351;SDS011;50680;52.626;-8.668;2022-09-12T05:42:04;1.25;;;0.70;;
64351;SDS011;50680;52.626;-8.668;2022-09-12T05:44:31;2.60;;;0.90;;
64351;SDS011;50680;52.626;-8.668;2022-09-12T05:46:58;3.50;;;0.70;;
64351;SDS011;50680;52.626;-8.668;2022-09-12T05:49:25;1.55;;;0.80;;
64351;SDS011;50680;52.626;-8.668;2022-09-12T05:51:53;0.88;;;0.68;;
64351;SDS011;50680;52.626;-8.668;2022-09-12T05:54:20;1.27;;;0.60;;
64351;SDS011;50680;52.626;-8.668;2022-09-12T05:56:56;2.40;;;0.80;;
64351;SDS011;50680;52.626;-8.668;2022-09-12T05:59:23;0.80;;;0.70;;
64351;SDS011;50680;52.626;-8.668;2022-09-12T06:01:50;0.98;;;0.73;;
64351;SDS011;50680;52.626;-8.668;2022-09-12T06:04:17;1.77;;;0.80;;
64351;SDS011;50680;52.626;-8.668;2022-09-12T06:06:44;1.17;;;0.73;;
64351;SDS011;50680;52.626;-8.668;2022-09-12T06:09:13;2.45;;;0.77;;
64351;SDS011;50680;52.626;-8.668;2022-09-12T06:11:41;3.83;;;1.10;;
64351;SDS011;50680;52.626;-8.668;2022-09-12T06:14:10;2.92;;;0.95;;
64351;SDS011;50680;52.626;-8.668;2022-09-12T06:16:38;3.00;;;0.75;;
64351;SDS011;50680;52.626;-8.668;2022-09-12T06:19:06;2.53;;;0.88;;
64351;SDS011;50680;52.626;-8.668;2022-09-12T06:21:38;1.35;;;1.00;;
64351;SDS011;50680;52.626;-8.668;2022-09-12T06:24:05;3.35;;;1.20;;
64351;SDS011;50680;52.626;-8.668;2022-09-12T06:26:33;2.92;;;1.10;;
64351;SDS011;50680;52.626;-8.668;2022-09-12T06:29:00;1.50;;;1.00;;
64351;SDS011;50680;52.626;-8.668;2022-09-12T06:31:29;1.88;;;1.13;;
64351;SDS011;50680;52.626;-8.668;2022-09-12T06:33:59;1.80;;;1.35;;
64351;SDS011;50680;52.626;-8.668;2022-09-12T06:36:30;3.53;;;1.30;;
64351;SDS011;50680;52.626;-8.668;2022-09-12T06:39:00;1.53;;;1.20;;
64351;SDS011;50680;52.626;-8.668;2022-09-12T06:41:30;3.30;;;1.27;;
64351;SDS011;50680;52.626;-8.668;2022-09-12T06:43:58;3.58;;;1.15;;
64351;SDS011;50680;52.626;-8.668;2022-09-12T06:46:26;2.17;;;1.00;;
64351;SDS011;50680;52.626;-8.668;2022-09-12T06:48:57;4.47;;;1.10;;
64351;SDS011;50680;52.626;-8.668;2022-09-12T06:51:26;4.60;;;1.30;;
64351;SDS011;50680;52.626;-8.668;2022-09-12T06:53:55;2.25;;;0.93;;
64351;SDS011;50680;52.626;-8.668;2022-09-12T06:56:24;1.20;;;0.93;;
64351;SDS011;50680;52.626;-8.668;2022-09-12T06:58:52;5.70;;;0.95;;
64351;SDS011;50680;52.626;-8.668;2022-09-12T07:01:22;1.50;;;1.10;;
64351;SDS011;50680;52.626;-8.668;2022-09-12T07:03:52;1.70;;;0.90;;
64351;SDS011;50680;52.626;-8.668;2022-09-12T07:06:22;2.00;;;1.48;;
64351;SDS011;50680;52.626;-8.668;2022-09-12T07:08:56;1.33;;;0.95;;
64351;SDS011;50680;52.626;-8.668;2022-09-12T07:11:25;1.85;;;0.90;;
64351;SDS011;50680;52.626;-8.668;2022-09-12T07:13:54;1.98;;;0.93;;
64351;SDS011;50680;52.626;-8.668;2022-09-12T07:16:21;1.35;;;0.75;;
64351;SDS011;50680;52.626;-8.668;2022-09-12T07:18:53;1.10;;;0.70;;
64351;SDS011;50680;52.626;-8.668;2022-09-12T07:21:22;0.77;;;0.70;;
64351;SDS011;50680;52.626;-8.668;2022-09-12T07:23:49;3.78;;;0.60;;
64351;SDS011;50680;52.626;-8.668;2022-09-12T07:26:26;0.70;;;0.70;;
64351;SDS011;50680;52.626;-8.668;2022-09-12T07:28:54;1.20;;;1.00;;
64351;SDS011;50680;52.626;-8.668;2022-09-12T07:31:38;1.45;;;0.70;;
64351;SDS011;50680;52.626;-8.668;2022-09-12T07:34:05;4.65;;;0.85;;
64351;SDS011;50680;52.626;-8.668;2022-09-12T07:36:32;0.85;;;0.80;;
64351;SDS011;50680;52.626;-8.668;2022-09-12T07:38:59;2.75;;;1.00;;
64351;SDS011;50680;52.626;-8.668;2022-09-12T07:41:27;0.68;;;0.65;;
64351;SDS011;50680;52.626;-8.668;2022-09-12T07:43:57;2.13;;;0.70;;
64351;SDS011;50680;52.626;-8.668;2022-09-12T07:46:27;1.38;;;0.80;;
64351;SDS011;50680;52.626;-8.668;2022-09-12T07:48:56;1.30;;;0.70;;
64351;SDS011;50680;52.626;-8.668;2022-09-12T07:51:25;3.55;;;0.70;;
64351;SDS011;50680;52.626;-8.668;2022-09-12T07:53:54;0.50;;;0.50;;
64351;SDS011;50680;52.626;-8.668;2022-09-12T07:56:22;0.65;;;0.65;;
64351;SDS011;50680;52.626;-8.668;2022-09-12T07:58:55;2.60;;;1.05;;
64351;SDS011;50680;52.626;-8.668;2022-09-12T08:01:22;4.90;;;0.80;;
64351;SDS011;50680;52.626;-8.668;2022-09-12T08:03:52;2.95;;;0.60;;
64351;SDS011;50680;52.626;-8.668;2022-09-12T08:08:51;2.95;;;1.02;;
64351;SDS011;50680;52.626;-8.668;2022-09-12T08:11:21;1.85;;;0.63;;
64351;SDS011;50680;52.626;-8.668;2022-09-12T08:13:50;2.08;;;0.50;;
64351;SDS011;50680;52.626;-8.668;2022-09-12T08:16:22;0.50;;;0.50;;
64351;SDS011;50680;52.626;-8.668;2022-09-12T08:18:53;2.53;;;0.60;;
64351;SDS011;50680;52.626;-8.668;2022-09-12T08:21:21;1.33;;;0.40;;
64351;SDS011;50680;52.626;-8.668;2022-09-12T08:23:53;2.45;;;0.50;;
64351;SDS011;50680;52.626;-8.668;2022-09-12T08:26:21;1.85;;;0.60;;
64351;SDS011;50680;52.626;-8.668;2022-09-12T08:28:50;3.13;;;0.60;;
64351;SDS011;50680;52.626;-8.668;2022-09-12T08:31:18;0.43;;;0.40;;
64351;SDS011;50680;52.626;-8.668;2022-09-12T08:33:47;2.35;;;0.50;;
64351;SDS011;50680;52.626;-8.668;2022-09-12T08:36:15;0.50;;;0.40;;
64351;SDS011;50680;52.626;-8.668;2022-09-12T08:38:46;3.50;;;0.50;;
64351;SDS011;50680;52.626;-8.668;2022-09-12T08:41:27;0.50;;;0.40;;
64351;SDS011;50680;52.626;-8.668;2022-09-12T08:52:32;2.10;;;0.50;;
64351;SDS011;50680;52.626;-8.668;2022-09-12T08:55:05;5.00;;;0.90;;
64351;SDS011;50680;52.626;-8.668;2022-09-12T08:57:50;0.95;;;0.30;;
64351;SDS011;50680;52.626;-8.668;2022-09-12T09:00:17;5.80;;;1.20;;
64351;SDS011;50680;52.626;-8.668;2022-09-12T09:05:31;12.90;;;1.63;;
64351;SDS011;50680;52.626;-8.668;2022-09-12T09:08:07;11.50;;;1.55;;
64351;SDS011;50680;52.626;-8.668;2022-09-12T09:10:53;12.38;;;2.17;;
64351;SDS011;50680;52.626;-8.668;2022-09-12T09:16:47;8.23;;;1.52;;
64351;SDS011;50680;52.626;-8.668;2022-09-12T09:19:17;14.65;;;2.30;;
64351;SDS011;50680;52.626;-8.668;2022-09-12T09:22:04;11.02;;;1.50;;
64351;SDS011;50680;52.626;-8.668;2022-09-12T09:24:39;9.65;;;1.73;;
64351;SDS011;50680;52.626;-8.668;2022-09-12T09:27:21;8.48;;;1.55;;
64351;SDS011;50680;52.626;-8.668;2022-09-12T09:30:12;10.65;;;2.55;;
64351;SDS011;50680;52.626;-8.668;2022-09-12T09:32:46;6.72;;;1.40;;
64351;SDS011;50680;52.626;-8.668;2022-09-12T09:35:23;8.98;;;1.60;;
64351;SDS011;50680;52.626;-8.668;2022-09-12T09:40:57;9.10;;;1.88;;
64351;SDS011;50680;52.626;-8.668;2022-09-12T09:43:29;6.30;;;1.45;;
64351;SDS011;50680;52.626;-8.668;2022-09-12T09:45:56;9.13;;;1.40;;
64351;SDS011;50680;52.626;-8.668;2022-09-12T09:48:29;5.60;;;1.35;;
64351;SDS011;50680;52.626;-8.668;2022-09-12T09:50:59;9.85;;;1.45;;
64351;SDS011;50680;52.626;-8.668;2022-09-12T09:53:40;11.00;;;1.60;;
64351;SDS011;50680;52.626;-8.668;2022-09-12T10:01:45;8.88;;;1.92;;
64351;SDS011;50680;52.626;-8.668;2022-09-12T10:04:23;10.38;;;2.00;;
64351;SDS011;50680;52.626;-8.668;2022-09-12T10:06:53;7.57;;;1.75;;
64351;SDS011;50680;52.626;-8.668;2022-09-12T10:09:23;12.68;;;2.40;;
64351;SDS011;50680;52.626;-8.668;2022-09-12T10:11:53;9.13;;;2.80;;
64351;SDS011;50680;52.626;-8.668;2022-09-12T10:14:29;10.60;;;2.08;;
64351;SDS011;50680;52.626;-8.668;2022-09-12T10:16:57;10.02;;;2.28;;
64351;SDS011;50680;52.626;-8.668;2022-09-12T10:19:37;7.60;;;2.78;;
64351;SDS011;50680;52.626;-8.668;2022-09-12T10:22:05;7.85;;;2.75;;
64351;SDS011;50680;52.626;-8.668;2022-09-12T10:24:41;6.72;;;2.38;;
64351;SDS011;50680;52.626;-8.668;2022-09-12T10:27:24;8.93;;;2.17;;
64351;SDS011;50680;52.626;-8.668;2022-09-12T10:30:05;9.18;;;2.75;;
64351;SDS011;50680;52.626;-8.668;2022-09-12T10:32:44;9.18;;;2.53;;
64351;SDS011;50680;52.626;-8.668;2022-09-12T10:35:17;12.65;;;3.00;;
64351;SDS011;50680;52.626;-8.668;2022-09-12T10:37:54;14.05;;;2.97;;
64351;SDS011;50680;52.626;-8.668;2022-09-12T10:40:29;13.38;;;2.80;;
64351;SDS011;50680;52.626;-8.668;2022-09-12T10:43:00;13.73;;;3.17;;
64351;SDS011;50680;52.626;-8.668;2022-09-12T10:45:29;9.07;;;2.58;;
64351;SDS011;50680;52.626;-8.668;2022-09-12T10:48:02;9.50;;;1.95;;
64351;SDS011;50680;52.626;-8.668;2022-09-12T10:50:47;8.18;;;2.10;;
64351;SDS011;50680;52.626;-8.668;2022-09-12T10:53:20;7.00;;;1.98;;
64351;SDS011;50680;52.626;-8.668;2022-09-12T11:06:49;7.45;;;2.00;;
64351;SDS011;50680;52.626;-8.668;2022-09-12T11:09:27;5.70;;;1.92;;
64351;SDS011;50680;52.626;-8.668;2022-09-12T11:20:01;8.15;;;2.03;;
64351;SDS011;50680;52.626;-8.668;2022-09-12T11:28:01;9.15;;;1.85;;
64351;SDS011;50680;52.626;-8.668;2022-09-12T11:30:52;6.50;;;1.97;;
64351;SDS011;50680;52.626;-8.668;2022-09-12T11:35:59;3.10;;;1.00;;
64351;SDS011;50680;52.626;-8.668;2022-09-12T11:41:19;6.38;;;1.05;;
64351;SDS011;50680;52.626;-8.668;2022-09-12T11:43:59;2.20;;;0.70;;
64351;SDS011;50680;52.626;-8.668;2022-09-12T11:46:43;3.50;;;0.70;;
64351;SDS011;50680;52.626;-8.668;2022-09-12T11:49:22;2.10;;;0.80;;
64351;SDS011;50680;52.626;-8.668;2022-09-12T11:52:24;1.83;;;0.60;;
64351;SDS011;50680;52.626;-8.668;2022-09-12T11:55:30;3.45;;;0.70;;
64351;SDS011;50680;52.626;-8.668;2022-09-12T11:57:57;1.38;;;0.60;;
64351;SDS011;50680;52.626;-8.668;2022-09-12T12:00:30;3.17;;;0.60;;
64351;SDS011;50680;52.626;-8.668;2022-09-12T12:03:08;1.90;;;0.50;;
64351;SDS011;50680;52.626;-8.668;2022-09-12T12:05:53;0.35;;;0.35;;
64351;SDS011;50680;52.626;-8.668;2022-09-12T12:08:30;1.85;;;0.47;;
64351;SDS011;50680;52.626;-8.668;2022-09-12T12:11:03;1.58;;;0.40;;
64351;SDS011;50680;52.626;-8.668;2022-09-12T12:13:35;1.60;;;0.40;;
64351;SDS011;50680;52.626;-8.668;2022-09-12T12:16:05;0.68;;;0.30;;
64351;SDS011;50680;52.626;-8.668;2022-09-12T12:18:39;3.70;;;0.30;;
64351;SDS011;50680;52.626;-8.668;2022-09-12T12:26:41;2.15;;;0.30;;
64351;SDS011;50680;52.626;-8.668;2022-09-12T12:34:29;4.47;;;0.50;;
64351;SDS011;50680;52.626;-8.668;2022-09-12T12:44:56;2.50;;;0.50;;
64351;SDS011;50680;52.626;-8.668;2022-09-12T12:47:29;0.77;;;0.60;;
64351;SDS011;50680;52.626;-8.668;2022-09-12T12:50:33;1.92;;;0.65;;
64351;SDS011;50680;52.626;-8.668;2022-09-12T12:53:05;1.73;;;0.50;;
64351;SDS011;50680;52.626;-8.668;2022-09-12T13:03:33;2.38;;;0.40;;
64351;SDS011;50680;52.626;-8.668;2022-09-12T13:06:02;0.75;;;0.43;;
64351;SDS011;50680;52.626;-8.668;2022-09-12T13:08:33;0.20;;;0.20;;
64351;SDS011;50680;52.626;-8.668;2022-09-12T13:11:13;1.58;;;0.30;;
64351;SDS011;50680;52.626;-8.668;2022-09-12T13:13:57;0.55;;;0.20;;
64351;SDS011;50680;52.626;-8.668;2022-09-12T13:16:37;0.20;;;0.20;;
64351;SDS011;50680;52.626;-8.668;2022-09-12T13:19:21;1.00;;;0.50;;
64351;SDS011;50680;52.626;-8.668;2022-09-12T13:22:02;0.45;;;0.30;;
64351;SDS011;50680;52.626;-8.668;2022-09-12T13:24:41;2.47;;;0.40;;
64351;SDS011;50680;52.626;-8.668;2022-09-12T13:27:16;0.77;;;0.40;;
64351;SDS011;50680;52.626;-8.668;2022-09-12T13:29:48;0.17;;;0.17;;
64351;SDS011;50680;52.626;-8.668;2022-09-12T13:32:35;2.05;;;0.47;;
64351;SDS011;50680;52.626;-8.668;2022-09-12T13:38:15;2.42;;;0.20;;
64351;SDS011;50680;52.626;-8.668;2022-09-12T13:43:45;0.20;;;0.20;;
64351;SDS011;50680;52.626;-8.668;2022-09-12T13:46:25;0.35;;;0.20;;
64351;SDS011;50680;52.626;-8.668;2022-09-12T13:48:57;0.30;;;0.20;;
64351;SDS011;50680;52.626;-8.668;2022-09-12T13:51:29;1.17;;;0.30;;
64351;SDS011;50680;52.626;-8.668;2022-09-12T13:53:58;0.45;;;0.25;;
64351;SDS011;50680;52.626;-8.668;2022-09-12T13:56:30;0.10;;;0.10;;
64351;SDS011;50680;52.626;-8.668;2022-09-12T13:58:59;0.60;;;0.43;;
64351;SDS011;50680;52.626;-8.668;2022-09-12T14:01:40;1.65;;;0.40;;
64351;SDS011;50680;52.626;-8.668;2022-09-12T14:04:14;0.20;;;0.10;;
64351;SDS011;50680;52.626;-8.668;2022-09-12T14:07:01;0.10;;;0.10;;
64351;SDS011;50680;52.626;-8.668;2022-09-12T14:09:38;2.15;;;0.30;;
64351;SDS011;50680;52.626;-8.668;2022-09-12T14:12:22;0.70;;;0.40;;
64351;SDS011;50680;52.626;-8.668;2022-09-12T14:14:51;0.40;;;0.40;;
64351;SDS011;50680;52.626;-8.668;2022-09-12T14:17:37;2.00;;;0.30;;
64351;SDS011;50680;52.626;-8.668;2022-09-12T14:20:11;0.30;;;0.30;;
64351;SDS011;50680;52.626;-8.668;2022-09-12T14:22:41;0.95;;;0.40;;
64351;SDS011;50680;52.626;-8.668;2022-09-12T14:25:21;0.75;;;0.30;;
64351;SDS011;50680;52.626;-8.668;2022-09-12T14:27:51;1.75;;;0.50;;
64351;SDS011;50680;52.626;-8.668;2022-09-12T14:33:04;0.60;;;0.40;;
64351;SDS011;50680;52.626;-8.668;2022-09-12T14:35:46;3.05;;;0.68;;
64351;SDS011;50680;52.626;-8.668;2022-09-12T14:38:34;0.50;;;0.50;;
64351;SDS011;50680;52.626;-8.668;2022-09-12T14:41:08;0.60;;;0.60;;
64351;SDS011;50680;52.626;-8.668;2022-09-12T14:43:37;1.00;;;0.75;;
64351;SDS011;50680;52.626;-8.668;2022-09-12T14:46:27;1.40;;;0.80;;
64351;SDS011;50680;52.626;-8.668;2022-09-12T14:48:59;1.00;;;0.90;;
64351;SDS011;50680;52.626;-8.668;2022-09-12T14:51:34;1.27;;;1.17;;
64351;SDS011;50680;52.626;-8.668;2022-09-12T14:54:03;0.90;;;0.80;;
64351;SDS011;50680;52.626;-8.668;2022-09-12T14:56:43;1.90;;;1.00;;
64351;SDS011;50680;52.626;-8.668;2022-09-12T14:59:34;1.35;;;0.90;;
64351;SDS011;50680;52.626;-8.668;2022-09-12T15:10:24;1.60;;;0.90;;
64351;SDS011;50680;52.626;-8.668;2022-09-12T15:15:41;2.25;;;0.98;;
64351;SDS011;50680;52.626;-8.668;2022-09-12T15:18:10;0.90;;;0.90;;
64351;SDS011;50680;52.626;-8.668;2022-09-12T15:20:47;1.88;;;1.00;;
64351;SDS011;50680;52.626;-8.668;2022-09-12T15:26:06;1.60;;;0.98;;
64351;SDS011;50680;52.626;-8.668;2022-09-12T15:31:09;2.25;;;1.00;;
64351;SDS011;50680;52.626;-8.668;2022-09-12T15:33:39;3.33;;;1.13;;
64351;SDS011;50680;52.626;-8.668;2022-09-12T15:36:13;2.60;;;1.23;;
64351;SDS011;50680;52.626;-8.668;2022-09-12T15:38:42;2.35;;;1.10;;
64351;SDS011;50680;52.626;-8.668;2022-09-12T15:41:11;3.55;;;1.15;;
64351;SDS011;50680;52.626;-8.668;2022-09-12T15:46:11;4.95;;;1.50;;
64351;SDS011;50680;52.626;-8.668;2022-09-12T15:48:39;2.45;;;1.35;;
64351;SDS011;50680;52.626;-8.668;2022-09-12T15:51:10;3.97;;;1.55;;
64351;SDS011;50680;52.626;-8.668;2022-09-12T15:53:42;4.05;;;1.60;;
64351;SDS011;50680;52.626;-8.668;2022-09-12T15:56:10;2.70;;;1.52;;
64351;SDS011;50680;52.626;-8.668;2022-09-12T15:58:37;2.55;;;1.40;;
64351;SDS011;50680;52.626;-8.668;2022-09-12T16:01:22;4.40;;;1.63;;
64351;SDS011;50680;52.626;-8.668;2022-09-12T16:03:49;1.75;;;1.42;;
64351;SDS011;50680;52.626;-8.668;2022-09-12T16:06:16;3.47;;;1.70;;
64351;SDS011;50680;52.626;-8.668;2022-09-12T16:08:43;3.63;;;1.23;;
64351;SDS011;50680;52.626;-8.668;2022-09-12T16:11:23;2.38;;;1.40;;
64351;SDS011;50680;52.626;-8.668;2022-09-12T16:13:52;1.92;;;1.20;;
64351;SDS011;50680;52.626;-8.668;2022-09-12T16:16:19;2.60;;;1.23;;
64351;SDS011;50680;52.626;-8.668;2022-09-12T16:18:47;1.17;;;0.90;;
64351;SDS011;50680;52.626;-8.668;2022-09-12T16:21:14;4.55;;;1.10;;
64351;SDS011;50680;52.626;-8.668;2022-09-12T16:23:44;2.58;;;1.27;;
64351;SDS011;50680;52.626;-8.668;2022-09-12T16:28:39;5.05;;;0.98;;
64351;SDS011;50680;52.626;-8.668;2022-09-12T16:31:07;3.28;;;1.20;;
64351;SDS011;50680;52.626;-8.668;2022-09-12T16:33:37;4.50;;;1.30;;
64351;SDS011;50680;52.626;-8.668;2022-09-12T16:36:09;2.20;;;1.20;;
64351;SDS011;50680;52.626;-8.668;2022-09-12T16:38:40;2.15;;;1.00;;
64351;SDS011;50680;52.626;-8.668;2022-09-12T16:41:13;1.90;;;1.20;;
64351;SDS011;50680;52.626;-8.668;2022-09-12T16:43:41;1.90;;;1.10;;
64351;SDS011;50680;52.626;-8.668;2022-09-12T16:51:24;4.22;;;1.10;;
64351;SDS011;50680;52.626;-8.668;2022-09-12T16:53:53;5.03;;;1.20;;
64351;SDS011;50680;52.626;-8.668;2022-09-12T16:56:21;2.15;;;1.27;;
64351;SDS011;50680;52.626;-8.668;2022-09-12T16:58:48;6.63;;;1.30;;
64351;SDS011;50680;52.626;-8.668;2022-09-12T17:01:17;8.63;;;1.77;;
64351;SDS011;50680;52.626;-8.668;2022-09-12T17:03:46;5.75;;;1.27;;
64351;SDS011;50680;52.626;-8.668;2022-09-12T17:06:14;4.90;;;1.27;;
64351;SDS011;50680;52.626;-8.668;2022-09-12T17:08:43;2.60;;;1.10;;
64351;SDS011;50680;52.626;-8.668;2022-09-12T17:11:14;6.60;;;1.60;;
64351;SDS011;50680;52.626;-8.668;2022-09-12T17:13:46;2.60;;;1.20;;
64351;SDS011;50680;52.626;-8.668;2022-09-12T17:16:30;3.55;;;1.35;;
64351;SDS011;50680;52.626;-8.668;2022-09-12T17:18:58;8.05;;;1.60;;
64351;SDS011;50680;52.626;-8.668;2022-09-12T17:21:24;4.60;;;1.48;;
64351;SDS011;50680;52.626;-8.668;2022-09-12T17:23:51;3.40;;;1.20;;
64351;SDS011;50680;52.626;-8.668;2022-09-12T17:26:18;2.35;;;0.90;;
64351;SDS011;50680;52.626;-8.668;2022-09-12T17:28:46;4.65;;;1.20;;
64351;SDS011;50680;52.626;-8.668;2022-09-12T17:31:13;2.88;;;0.80;;
64351;SDS011;50680;52.626;-8.668;2022-09-12T17:33:40;4.88;;;1.30;;
64351;SDS011;50680;52.626;-8.668;2022-09-12T17:36:12;5.03;;;1.42;;
64351;SDS011;50680;52.626;-8.668;2022-09-12T17:38:41;1.80;;;0.93;;
64351;SDS011;50680;52.626;-8.668;2022-09-12T17:41:12;3.30;;;0.90;;
64351;SDS011;50680;52.626;-8.668;2022-09-12T17:43:41;4.72;;;0.90;;
64351;SDS011;50680;52.626;-8.668;2022-09-12T17:46:09;5.45;;;0.90;;
64351;SDS011;50680;52.626;-8.668;2022-09-12T17:48:36;4.97;;;0.98;;
64351;SDS011;50680;52.626;-8.668;2022-09-12T17:51:07;4.68;;;0.85;;
64351;SDS011;50680;52.626;-8.668;2022-09-12T17:53:34;3.92;;;0.90;;
64351;SDS011;50680;52.626;-8.668;2022-09-12T17:56:02;1.70;;;0.60;;
64351;SDS011;50680;52.626;-8.668;2022-09-12T17:58:30;4.95;;;0.80;;
64351;SDS011;50680;52.626;-8.668;2022-09-12T18:01:16;2.05;;;0.40;;
64351;SDS011;50680;52.626;-8.668;2022-09-12T18:04:01;3.80;;;0.65;;